Silver Bay, Minnesota
Current Conditions -  °F | °C
As of 2:54 PM on Thursday 20 Nov 2014 (Local Time) from KBFW Reporting Station
Clear Clear  
Wind Chill:   Ceiling: Unl
Heat Index: 16°   Visibility: 10mi
Dew Point:   Wind: 7mph
Humidity: 49%   Direction: 300°WNW
Pressure: 29.99"   Gusts: NA
Location:  47.29°N, 91.26°W
Report Text: KBFW 202054Z AUTO 30006KT 10SM CLR M09/M18 A2999 RMK AO2
Loading
Personal Weather Stations






























Interactive Weather Map New forecast layout! Learn more

10-Day Weather Forecast

Advertisements
Track Severe Weather on mobile